createdAt,value
2022-07-25T00:00:18.766Z,2.23
2022-07-25T00:02:46.125Z,1.50
2022-07-25T00:05:28.514Z,1.60
2022-07-25T00:07:58.670Z,1.60
2022-07-25T00:10:36.986Z,1.60
2022-07-25T00:13:04.151Z,1.33
2022-07-25T00:15:31.160Z,2.47
2022-07-25T00:18:00.155Z,1.40
2022-07-25T00:20:30.358Z,3.37
2022-07-25T00:23:00.532Z,2.50
2022-07-25T00:25:27.507Z,1.77
2022-07-25T00:27:57.598Z,1.43
2022-07-25T00:30:27.624Z,2.20
2022-07-25T00:32:57.724Z,1.60
2022-07-25T00:35:27.760Z,1.67
2022-07-25T00:37:57.931Z,2.00
2022-07-25T00:40:28.120Z,2.30
2022-07-25T00:42:55.062Z,2.20
2022-07-25T00:45:22.099Z,2.30
2022-07-25T00:47:49.063Z,1.70
2022-07-25T00:50:16.038Z,2.63
2022-07-25T00:52:43.111Z,1.50
2022-07-25T00:55:10.338Z,1.67
2022-07-25T00:57:37.453Z,1.93
2022-07-25T01:00:09.897Z,3.13
2022-07-25T01:02:51.281Z,2.17
2022-07-25T01:05:18.891Z,1.87
2022-07-25T01:07:48.306Z,2.70
2022-07-25T01:11:13.349Z,1.73
2022-07-25T01:13:40.483Z,1.97
2022-07-25T01:16:09.686Z,2.33
2022-07-25T01:18:38.849Z,4.00
2022-07-25T01:21:06.268Z,4.07
2022-07-25T01:23:33.463Z,1.70
2022-07-25T01:26:00.485Z,6.70
2022-07-25T01:28:33.440Z,3.30
2022-07-25T01:31:00.612Z,2.73
2022-07-25T01:34:28.437Z,2.50
2022-07-25T01:36:58.406Z,2.73
2022-07-25T01:39:25.346Z,2.53
2022-07-25T01:41:55.414Z,2.00
2022-07-25T01:44:23.008Z,5.30
2022-07-25T01:46:53.207Z,2.67
2022-07-25T01:49:26.802Z,4.10
2022-07-25T01:51:54.767Z,2.93
2022-07-25T01:54:21.690Z,3.47
2022-07-25T01:56:52.479Z,3.10
2022-07-25T01:59:22.550Z,3.10
2022-07-25T02:01:53.623Z,5.43
2022-07-25T02:04:21.679Z,4.50
2022-07-25T02:06:48.829Z,5.60
2022-07-25T02:09:17.876Z,5.63
2022-07-25T02:11:44.805Z,3.07
2022-07-25T02:14:12.879Z,4.17
2022-07-25T02:16:39.895Z,3.73
2022-07-25T02:19:07.006Z,3.47
2022-07-25T02:21:34.274Z,2.97
2022-07-25T02:24:01.211Z,3.43
2022-07-25T02:26:31.204Z,2.97
2022-07-25T02:28:58.204Z,3.23
2022-07-25T02:31:32.181Z,3.00
2022-07-25T02:34:07.887Z,3.87
2022-07-25T02:36:38.418Z,4.70
2022-07-25T02:39:05.365Z,5.50
2022-07-25T02:41:35.479Z,5.20
2022-07-25T02:44:06.863Z,5.23
2022-07-25T02:46:37.305Z,5.87
2022-07-25T02:49:05.022Z,2.80
2022-07-25T02:51:35.059Z,3.40
2022-07-25T02:54:02.269Z,7.47
2022-07-25T02:56:33.316Z,3.40
2022-07-25T02:59:03.539Z,2.27
2022-07-25T03:01:30.811Z,5.90
2022-07-25T03:04:00.944Z,5.90
2022-07-25T03:06:30.273Z,3.90
2022-07-25T03:09:03.406Z,4.20
2022-07-25T03:11:30.455Z,4.03
2022-07-25T03:14:22.344Z,5.00
2022-07-25T03:16:52.371Z,6.50
2022-07-25T03:19:22.756Z,5.10
2022-07-25T03:21:53.765Z,9.27
2022-07-25T03:24:20.727Z,7.87
2022-07-25T03:26:47.780Z,6.60
2022-07-25T03:29:17.899Z,3.60
2022-07-25T03:31:45.362Z,6.57
2022-07-25T03:34:13.598Z,2.97
2022-07-25T03:36:43.557Z,3.50
2022-07-25T03:39:14.532Z,8.00
2022-07-25T03:41:59.036Z,6.60
2022-07-25T03:44:26.234Z,6.20
2022-07-25T03:46:55.471Z,6.03
2022-07-25T03:49:23.424Z,4.87
2022-07-25T03:51:52.486Z,5.67
2022-07-25T03:54:19.564Z,9.33
2022-07-25T03:56:51.447Z,6.53
2022-07-25T03:59:31.804Z,7.50
2022-07-25T04:01:58.876Z,9.00
2022-07-25T04:04:25.809Z,11.23
2022-07-25T04:06:52.806Z,11.17
2022-07-25T04:09:19.701Z,6.33
2022-07-25T04:11:46.679Z,6.57
2022-07-25T04:14:14.426Z,10.83
2022-07-25T04:16:41.912Z,6.20
2022-07-25T04:19:09.970Z,5.27
2022-07-25T04:21:37.338Z,4.53
2022-07-25T04:24:05.750Z,9.30
2022-07-25T04:26:35.975Z,6.40
2022-07-25T04:29:06.068Z,6.57
2022-07-25T04:31:39.060Z,5.20
2022-07-25T04:34:09.554Z,6.53
2022-07-25T04:36:39.873Z,11.40
2022-07-25T04:39:12.961Z,9.37
2022-07-25T04:41:43.243Z,9.13
2022-07-25T04:44:12.474Z,7.47
2022-07-25T04:46:45.440Z,9.87
2022-07-25T04:49:15.529Z,11.20
2022-07-25T04:51:45.737Z,8.30
2022-07-25T04:54:15.679Z,6.23
2022-07-25T04:56:45.669Z,10.50
2022-07-25T04:59:15.824Z,8.13
2022-07-25T05:01:44.825Z,8.20
2022-07-25T05:04:11.839Z,6.33
2022-07-25T05:06:39.829Z,6.43
2022-07-25T05:09:06.894Z,7.90
2022-07-25T05:11:33.893Z,5.03
2022-07-25T05:14:08.287Z,4.90
2022-07-25T05:16:38.619Z,7.80
2022-07-25T05:19:09.889Z,7.20
2022-07-25T05:21:38.368Z,5.40
2022-07-25T05:24:09.096Z,5.63
2022-07-25T05:26:39.546Z,5.70
2022-07-25T05:29:12.727Z,3.03
2022-07-25T05:31:43.029Z,8.30
2022-07-25T05:34:13.144Z,5.87
2022-07-25T05:36:47.421Z,5.13
2022-07-25T05:39:17.569Z,4.67
2022-07-25T05:41:45.729Z,5.70
2022-07-25T05:44:12.851Z,7.57
2022-07-25T05:46:40.933Z,5.83
2022-07-25T05:49:11.269Z,6.20
2022-07-25T05:51:41.585Z,5.23
2022-07-25T05:54:11.725Z,3.30
2022-07-25T05:56:41.830Z,5.23
2022-07-25T05:59:12.070Z,7.93
2022-07-25T06:01:45.372Z,5.67
2022-07-25T06:04:14.653Z,6.87
2022-07-25T06:06:43.648Z,6.23
2022-07-25T06:09:13.640Z,7.57
2022-07-25T06:11:54.304Z,5.50
2022-07-25T06:14:26.199Z,7.73
2022-07-25T06:17:04.140Z,5.93
2022-07-25T06:19:34.291Z,5.80
2022-07-25T06:22:03.324Z,10.47
2022-07-25T06:24:33.454Z,7.03
2022-07-25T06:27:04.220Z,4.37
2022-07-25T06:29:32.643Z,6.23
2022-07-25T06:32:02.971Z,4.07
2022-07-25T06:34:31.036Z,6.23
2022-07-25T06:37:01.149Z,7.27
2022-07-25T06:39:45.834Z,5.60
2022-07-25T06:42:16.466Z,5.30
2022-07-25T06:44:43.775Z,5.00
2022-07-25T06:47:13.857Z,4.47
2022-07-25T06:49:41.984Z,3.10
2022-07-25T06:52:11.139Z,7.53
2022-07-25T06:54:41.287Z,4.93
2022-07-25T06:57:09.110Z,7.10
2022-07-25T06:59:38.043Z,11.20
2022-07-25T07:02:05.052Z,6.67
2022-07-25T07:04:32.039Z,8.63
2022-07-25T07:07:02.129Z,6.80
2022-07-25T07:09:39.531Z,6.30
2022-07-25T07:12:06.779Z,9.83
2022-07-25T07:14:37.740Z,8.37
2022-07-25T07:17:11.452Z,8.80
2022-07-25T07:19:44.556Z,8.93
2022-07-25T07:22:15.664Z,9.47
2022-07-25T07:24:45.220Z,8.10
2022-07-25T07:27:16.327Z,6.03
2022-07-25T07:29:49.489Z,8.63
2022-07-25T07:32:16.993Z,7.13
2022-07-25T07:34:47.069Z,7.33
2022-07-25T07:37:14.018Z,7.10
2022-07-25T07:39:41.021Z,7.57
2022-07-25T07:42:08.142Z,11.27
2022-07-25T07:44:38.129Z,10.40
2022-07-25T07:47:08.131Z,6.57
2022-07-25T07:49:49.788Z,9.17
2022-07-25T07:52:18.183Z,7.00
2022-07-25T07:55:03.614Z,6.43
2022-07-25T07:57:45.758Z,12.07
2022-07-25T08:00:16.904Z,9.60
2022-07-25T08:02:47.985Z,7.77
2022-07-25T08:05:36.748Z,10.33
2022-07-25T08:08:11.032Z,8.37
2022-07-25T08:10:44.290Z,10.80
2022-07-25T08:13:22.886Z,7.00
2022-07-25T08:16:04.983Z,8.10
2022-07-25T08:18:35.133Z,7.70
2022-07-25T08:21:06.166Z,8.87
2022-07-25T08:23:39.031Z,8.17
2022-07-25T08:26:06.778Z,8.40
2022-07-25T08:28:35.773Z,6.60
2022-07-25T08:31:06.178Z,8.90
2022-07-25T08:33:36.412Z,7.70
2022-07-25T08:36:06.690Z,6.17
2022-07-25T08:38:37.215Z,6.63
2022-07-25T08:41:04.463Z,7.20
2022-07-25T08:43:36.026Z,8.57
2022-07-25T08:46:06.380Z,7.53
2022-07-25T08:48:37.983Z,8.30
2022-07-25T08:51:05.940Z,7.57
2022-07-25T08:53:36.984Z,7.30
2022-07-25T08:56:12.511Z,8.60
2022-07-25T08:58:43.772Z,5.70
2022-07-25T09:01:14.816Z,12.43
2022-07-25T09:03:44.958Z,6.27
2022-07-25T09:06:22.700Z,12.03
2022-07-25T09:09:44.742Z,8.37
2022-07-25T09:12:16.804Z,8.93
2022-07-25T09:14:44.816Z,8.30
2022-07-25T09:17:22.331Z,8.03
2022-07-25T09:19:55.916Z,8.90
2022-07-25T09:22:26.035Z,5.87
2022-07-25T09:24:56.156Z,5.55
2022-07-25T09:27:23.176Z,7.23
2022-07-25T09:29:53.259Z,8.67
2022-07-25T09:32:22.846Z,7.65
2022-07-25T09:34:50.978Z,7.35
2022-07-25T09:37:25.325Z,4.63
2022-07-25T09:39:55.365Z,6.33
2022-07-25T09:42:43.046Z,7.38
2022-07-25T09:45:14.974Z,10.18
2022-07-25T09:47:59.875Z,10.68
2022-07-25T09:50:31.914Z,13.23
2022-07-25T09:53:14.635Z,13.93
2022-07-25T09:55:43.941Z,16.20
2022-07-25T09:58:10.859Z,13.60
2022-07-25T10:00:42.005Z,13.47
2022-07-25T10:03:35.794Z,16.40
2022-07-25T10:06:15.310Z,17.23
2022-07-25T10:08:47.734Z,7.37
2022-07-25T10:11:32.739Z,11.57
2022-07-25T10:14:12.895Z,9.53
2022-07-25T10:16:50.130Z,9.50
2022-07-25T10:19:35.888Z,10.90
2022-07-25T10:22:02.887Z,15.97
2022-07-25T10:24:46.207Z,9.20
2022-07-25T10:27:48.855Z,13.95
2022-07-25T10:30:27.074Z,12.90
2022-07-25T10:33:18.552Z,14.65
2022-07-25T10:35:46.722Z,12.98
2022-07-25T10:38:13.791Z,7.25
2022-07-25T10:40:46.632Z,10.60
2022-07-25T10:43:18.863Z,6.70
2022-07-25T10:45:50.224Z,7.82
2022-07-25T10:48:31.336Z,14.30
2022-07-25T10:51:06.002Z,13.77
2022-07-25T10:53:49.341Z,13.95
2022-07-25T10:56:22.194Z,19.35
2022-07-25T10:59:13.029Z,16.55
2022-07-25T11:01:45.164Z,9.18
2022-07-25T11:04:16.460Z,9.73
2022-07-25T11:06:43.590Z,10.30
2022-07-25T11:09:28.626Z,15.73
2022-07-25T11:11:59.610Z,11.40
2022-07-25T11:14:56.429Z,26.60
2022-07-25T11:17:27.169Z,21.45
2022-07-25T11:19:56.246Z,18.02
2022-07-25T11:22:24.299Z,17.63
2022-07-25T11:24:52.614Z,28.65
2022-07-25T11:27:25.782Z,24.13
2022-07-25T11:30:14.724Z,27.05
2022-07-25T11:33:01.877Z,21.58
2022-07-25T11:35:33.118Z,26.90
2022-07-25T11:38:54.106Z,15.35
2022-07-25T11:41:33.939Z,24.88
2022-07-25T11:44:01.955Z,13.93
2022-07-25T11:46:40.885Z,18.70
2022-07-25T11:49:11.783Z,16.65
2022-07-25T11:51:39.806Z,20.77
2022-07-25T11:54:11.155Z,10.13
2022-07-25T11:56:46.954Z,13.10
2022-07-25T11:59:14.515Z,13.68
2022-07-25T12:02:05.031Z,12.07
2022-07-25T12:04:35.099Z,14.45
2022-07-25T12:07:06.184Z,13.55
2022-07-25T12:09:33.177Z,20.17
2022-07-25T12:12:06.623Z,16.70
2022-07-25T12:14:43.719Z,19.05
2022-07-25T12:17:10.679Z,23.40
2022-07-25T12:19:41.344Z,16.92
2022-07-25T12:22:11.390Z,14.95
2022-07-25T12:25:02.283Z,12.20
2022-07-25T12:27:29.325Z,14.70
2022-07-25T12:29:56.239Z,29.83
2022-07-25T12:32:23.142Z,16.88
2022-07-25T12:34:57.278Z,7.60
2022-07-25T12:37:25.341Z,10.18
2022-07-25T12:39:55.762Z,10.55
2022-07-25T12:42:30.892Z,6.00
2022-07-25T12:45:01.005Z,8.85
2022-07-25T12:47:31.550Z,6.75
2022-07-25T12:49:58.508Z,6.38
2022-07-25T12:52:25.562Z,9.68
2022-07-25T12:55:07.982Z,6.70
2022-07-25T12:57:37.556Z,22.83
2022-07-25T13:00:11.252Z,9.65
2022-07-25T13:02:41.681Z,11.63
2022-07-25T13:05:08.979Z,12.02
2022-07-25T13:07:39.137Z,15.57
2022-07-25T13:10:09.923Z,20.83
2022-07-25T13:12:37.127Z,25.67
2022-07-25T13:15:07.942Z,21.23
2022-07-25T13:17:36.133Z,23.13
2022-07-25T13:20:05.557Z,19.08
2022-07-25T13:22:35.527Z,16.27
2022-07-25T13:25:02.546Z,18.58
2022-07-25T13:27:37.024Z,16.25
2022-07-25T13:30:14.586Z,18.17
2022-07-25T13:32:46.714Z,19.80
2022-07-25T13:35:20.484Z,10.52
2022-07-25T13:37:48.404Z,15.13
2022-07-25T13:40:43.197Z,14.27
2022-07-25T13:43:16.257Z,12.60
2022-07-25T13:45:43.510Z,21.83
2022-07-25T13:48:30.805Z,26.73
2022-07-25T13:50:59.654Z,18.25
2022-07-25T13:53:30.641Z,24.27
2022-07-25T13:56:00.034Z,24.95
2022-07-25T13:58:30.119Z,35.35
2022-07-25T14:01:14.438Z,16.05
2022-07-25T14:03:44.535Z,18.92
2022-07-25T14:06:14.691Z,13.32
2022-07-25T14:08:44.926Z,15.20
2022-07-25T14:11:17.879Z,16.30
2022-07-25T14:13:48.004Z,15.25
2022-07-25T14:16:19.964Z,15.98
2022-07-25T14:18:50.819Z,26.33
2022-07-25T14:21:20.855Z,20.38
2022-07-25T14:23:47.803Z,19.70
2022-07-25T14:26:14.871Z,21.55
2022-07-25T14:28:45.015Z,24.40
2022-07-25T14:31:15.210Z,20.15
2022-07-25T14:33:45.401Z,27.45
2022-07-25T14:36:14.355Z,27.23
2022-07-25T14:38:41.481Z,25.08
2022-07-25T14:41:13.240Z,22.88
2022-07-25T14:43:44.367Z,23.25
2022-07-25T14:46:15.032Z,26.60
2022-07-25T14:48:45.164Z,5.90
2022-07-25T14:51:12.195Z,17.83
2022-07-25T14:53:53.287Z,23.23
2022-07-25T14:56:21.596Z,22.42
2022-07-25T14:58:51.728Z,18.23
2022-07-25T15:01:24.494Z,10.60
2022-07-25T15:03:57.940Z,13.95
2022-07-25T15:06:29.277Z,15.73
2022-07-25T15:08:59.478Z,12.82
2022-07-25T15:11:26.401Z,15.50
2022-07-25T15:13:53.606Z,13.77
2022-07-25T15:16:24.233Z,15.43
2022-07-25T15:21:42.379Z,12.65
2022-07-25T15:24:29.263Z,19.98
2022-07-25T15:27:09.887Z,17.15
2022-07-25T15:29:39.898Z,20.95
2022-07-25T15:32:12.873Z,16.58
2022-07-25T15:34:42.942Z,13.77
2022-07-25T15:37:09.938Z,13.48
2022-07-25T15:39:40.146Z,13.73
2022-07-25T15:42:08.283Z,11.38
2022-07-25T15:44:35.248Z,11.30
2022-07-25T15:47:03.414Z,12.68
2022-07-25T15:49:33.644Z,13.77
2022-07-25T15:52:00.582Z,12.40
2022-07-25T15:54:29.564Z,9.35
2022-07-25T15:57:00.446Z,14.70
2022-07-25T15:59:30.703Z,21.90
2022-07-25T16:02:00.633Z,13.65
2022-07-25T16:04:47.831Z,10.13
2022-07-25T16:07:15.950Z,15.55
2022-07-25T16:09:43.361Z,13.75
2022-07-25T16:12:13.600Z,9.95
2022-07-25T16:14:40.524Z,16.70
2022-07-25T16:17:10.716Z,18.20
2022-07-25T16:19:41.304Z,9.03
2022-07-25T16:22:11.559Z,11.27
2022-07-25T16:24:41.744Z,16.50
2022-07-25T16:27:11.913Z,17.53
2022-07-25T16:29:40.042Z,9.47
2022-07-25T16:32:13.152Z,10.63
2022-07-25T16:34:43.204Z,7.40
2022-07-25T16:37:14.073Z,6.30
2022-07-25T16:39:42.227Z,6.17
2022-07-25T16:42:12.370Z,9.07
2022-07-25T16:44:47.848Z,7.93
2022-07-25T16:47:17.930Z,8.73
2022-07-25T16:49:48.030Z,6.90
2022-07-25T16:52:18.079Z,7.50
2022-07-25T16:55:08.071Z,10.97
2022-07-25T16:57:39.087Z,17.00
2022-07-25T17:00:08.382Z,9.97
2022-07-25T17:02:38.442Z,9.47
2022-07-25T17:05:06.072Z,7.93
2022-07-25T17:07:37.946Z,10.30
2022-07-25T17:10:08.750Z,7.60
2022-07-25T17:12:35.983Z,18.00
2022-07-25T17:15:06.734Z,12.23
2022-07-25T17:17:36.920Z,7.90
2022-07-25T17:20:07.594Z,9.23
2022-07-25T17:22:36.613Z,8.67
2022-07-25T17:25:06.981Z,7.40
2022-07-25T17:27:37.568Z,10.70
2022-07-25T17:30:07.546Z,8.27
2022-07-25T17:32:37.567Z,7.80
2022-07-25T17:35:05.862Z,8.60
2022-07-25T17:37:32.978Z,6.93
2022-07-25T17:40:02.420Z,9.07
2022-07-25T17:42:32.501Z,7.77
2022-07-25T17:45:00.541Z,7.27
2022-07-25T17:47:27.549Z,12.73
2022-07-25T17:49:54.630Z,12.77
2022-07-25T17:52:24.649Z,11.60
2022-07-25T17:54:55.607Z,9.77
2022-07-25T17:57:26.228Z,7.10
2022-07-25T17:59:56.911Z,7.90
2022-07-25T18:02:27.002Z,14.07
2022-07-25T18:04:57.226Z,12.80
2022-07-25T18:07:27.058Z,7.53
2022-07-25T18:09:57.641Z,5.17
2022-07-25T18:12:30.693Z,8.10
2022-07-25T18:14:57.641Z,11.83
2022-07-25T18:17:28.123Z,10.87
2022-07-25T18:19:58.146Z,11.07
2022-07-25T18:22:25.145Z,15.77
2022-07-25T18:24:54.145Z,8.60
2022-07-25T18:27:44.569Z,7.60
2022-07-25T18:30:16.094Z,8.80
2022-07-25T18:32:46.076Z,8.17
2022-07-25T18:35:16.191Z,6.70
2022-07-25T18:37:45.242Z,11.33
2022-07-25T18:40:19.693Z,11.07
2022-07-25T18:42:49.751Z,8.63
2022-07-25T18:45:16.826Z,7.97
2022-07-25T18:47:46.692Z,10.47
2022-07-25T18:50:19.894Z,9.83
2022-07-25T18:52:49.896Z,12.60
2022-07-25T18:55:19.973Z,6.67
2022-07-25T18:57:50.186Z,8.87
2022-07-25T19:00:23.304Z,12.20
2022-07-25T19:02:50.662Z,7.27
2022-07-25T19:05:19.889Z,7.67
2022-07-25T19:07:50.015Z,11.47
2022-07-25T19:10:20.067Z,7.63
2022-07-25T19:12:50.148Z,7.73
2022-07-25T19:15:17.255Z,14.17
2022-07-25T19:17:47.338Z,7.67
2022-07-25T19:20:14.461Z,6.60
2022-07-25T19:22:49.537Z,12.63
2022-07-25T19:25:17.800Z,6.23
2022-07-25T19:27:48.898Z,9.00
2022-07-25T19:30:18.453Z,11.27
2022-07-25T19:32:47.478Z,10.07
2022-07-25T19:35:14.677Z,9.93
2022-07-25T19:37:41.721Z,12.00
2022-07-25T19:40:09.416Z,8.37
2022-07-25T19:42:41.455Z,11.20
2022-07-25T19:45:14.555Z,9.13
2022-07-25T19:47:44.606Z,10.50
2022-07-25T19:50:14.793Z,11.10
2022-07-25T19:52:44.870Z,9.30
2022-07-25T19:55:12.867Z,10.20
2022-07-25T19:57:40.083Z,17.30
2022-07-25T20:00:07.761Z,11.97
2022-07-25T20:02:34.740Z,10.10
2022-07-25T20:05:02.233Z,14.00
2022-07-25T20:07:29.366Z,15.37
2022-07-25T20:09:56.283Z,12.50
2022-07-25T20:12:24.929Z,17.70
2022-07-25T20:14:52.244Z,13.30
2022-07-25T20:17:19.590Z,12.93
2022-07-25T20:19:48.543Z,10.50
2022-07-25T20:22:15.464Z,8.13
2022-07-25T20:24:42.419Z,10.00
2022-07-25T20:27:09.477Z,6.87
2022-07-25T20:29:36.572Z,10.27
2022-07-25T20:32:04.634Z,7.37
2022-07-25T20:34:31.652Z,7.80
2022-07-25T20:36:58.783Z,8.93
2022-07-25T20:39:26.505Z,11.67
2022-07-25T20:41:55.758Z,7.80
2022-07-25T20:44:22.667Z,8.47
2022-07-25T20:46:51.778Z,5.27
2022-07-25T20:49:19.120Z,12.47
2022-07-25T20:51:49.830Z,12.53
2022-07-25T20:54:21.830Z,7.60
2022-07-25T20:56:50.339Z,11.73
2022-07-25T20:59:20.282Z,8.93
2022-07-25T21:01:50.617Z,6.73
2022-07-25T21:04:19.122Z,6.73
2022-07-25T21:06:49.340Z,9.10
2022-07-25T21:09:19.953Z,10.07
2022-07-25T21:11:50.130Z,9.60
2022-07-25T21:14:20.204Z,11.63
2022-07-25T21:16:53.348Z,7.13
2022-07-25T21:19:26.330Z,10.27
2022-07-25T21:21:55.614Z,9.57
2022-07-25T21:24:25.683Z,8.90
2022-07-25T21:26:55.667Z,9.47
2022-07-25T21:29:52.611Z,15.40
2022-07-25T21:32:21.353Z,17.50
2022-07-25T21:34:52.014Z,8.90
2022-07-25T21:37:22.050Z,10.97
2022-07-25T21:39:52.145Z,9.40
2022-07-25T21:42:22.220Z,9.93
2022-07-25T21:44:51.381Z,10.80
2022-07-25T21:47:18.329Z,7.30
2022-07-25T21:50:06.858Z,11.13
2022-07-25T21:52:37.297Z,8.83
2022-07-25T21:55:05.155Z,11.87
2022-07-25T21:57:33.036Z,9.67
2022-07-25T22:00:03.743Z,13.57
2022-07-25T22:02:46.680Z,10.73
2022-07-25T22:05:15.112Z,13.63
2022-07-25T22:07:45.538Z,16.27
2022-07-25T22:10:16.959Z,8.60
2022-07-25T22:12:47.130Z,15.00
2022-07-25T22:15:14.642Z,10.30
2022-07-25T22:17:48.284Z,12.70
2022-07-25T22:20:20.000Z,10.73
2022-07-25T22:22:50.352Z,8.83
2022-07-25T22:25:23.450Z,16.13
2022-07-25T22:27:56.419Z,14.53
2022-07-25T22:30:26.532Z,21.47
2022-07-25T22:32:56.512Z,13.47
2022-07-25T22:35:26.718Z,10.73
2022-07-25T22:37:56.967Z,14.53
2022-07-25T22:40:23.943Z,10.23
2022-07-25T22:42:54.015Z,14.57
2022-07-25T22:45:24.166Z,17.90
2022-07-25T22:47:54.298Z,10.63
2022-07-25T22:50:25.313Z,14.10
2022-07-25T22:52:55.316Z,17.07
2022-07-25T22:55:25.576Z,13.37
2022-07-25T22:57:55.582Z,11.10
2022-07-25T23:00:25.644Z,10.97
2022-07-25T23:02:55.929Z,12.03
2022-07-25T23:05:29.099Z,11.87
2022-07-25T23:07:59.090Z,10.87
2022-07-25T23:10:26.167Z,14.20
2022-07-25T23:12:53.230Z,13.30
2022-07-25T23:15:23.455Z,18.27
2022-07-25T23:17:56.766Z,7.90
2022-07-25T23:20:29.818Z,10.73
2022-07-25T23:22:59.888Z,11.43
2022-07-25T23:25:26.894Z,13.30
2022-07-25T23:27:56.930Z,10.40
2022-07-25T23:30:30.042Z,8.87
2022-07-25T23:32:59.992Z,15.97
2022-07-25T23:35:30.683Z,9.20
2022-07-25T23:38:00.733Z,11.37
2022-07-25T23:40:30.887Z,13.70
2022-07-25T23:42:57.972Z,7.13
2022-07-25T23:45:27.871Z,7.93
2022-07-25T23:47:58.606Z,12.00
2022-07-25T23:50:28.815Z,4.73
2022-07-25T23:52:58.771Z,3.37
2022-07-25T23:55:26.823Z,5.60
2022-07-25T23:57:54.262Z,6.10
